Terminal Aerodrome Forecast
Issued by NWS Atlanta, GA

Home | Current Version | Previous Version | Text Only | Print | Product List | Glossary On
Versions: 1 2 3 4 5 6 7 8 9 10 11 12 13 14
180
FTUS42 KFFC 312324
TAFMCN
TAF
KMCN 312324Z 0100/0124 VRB04KT P6SM VCSH SCT060
     FM010100 00000KT P6SM SCT100
     FM011000 00000KT 6SM BR SCT250
     FM011500 12004KT P6SM FEW040
     FM011600 12005KT P6SM SCT050 PROB30 0120/0124 6SM TSRA
      BKN040CB=

USA.gov is the U.S. government's official web portal to all federal, state and local government web resources and services.